Time;durP1;ratioP1;P1;durP2;ratioP2;P2;SDS_P1;SDS_P2;PMS_P1;PMS_P2;Temp;Humidity;BMP_temperature;BMP_pressure;BME280_temperature;BME280_humidity;BME280_pressure;Samples;Min_cycle;Max_cycle;Signal;HPM_P1;HPM_P2
2022/07/08 00:00:39;;;;;;;15.18;4.10;;;;;;;;;;5019629;28;20404;-66
2022/07/08 00:03:05;;;;;;;17.63;3.38;;;;;;;;;;5031070;28;20100;-66
2022/07/08 00:05:31;;;;;;;11.90;2.85;;;;;;;;;;5019392;28;20040;-65
2022/07/08 00:07:57;;;;;;;11.48;2.72;;;;;;;;;;5024799;28;20465;-66
2022/07/08 00:10:24;;;;;;;8.35;3.00;;;;;;;;;;5026370;28;20036;-66
2022/07/08 00:12:50;;;;;;;12.32;3.13;;;;;;;;;;5018175;28;20030;-66
2022/07/08 00:15:16;;;;;;;14.15;3.30;;;;;;;;;;5028942;28;20101;-66
2022/07/08 00:17:42;;;;;;;18.90;3.42;;;;;;;;;;5020187;28;20076;-66
2022/07/08 00:20:09;;;;;;;18.20;3.50;;;;;;;;;;5023375;28;20062;-66
2022/07/08 00:22:35;;;;;;;13.15;3.80;;;;;;;;;;5028043;28;20391;-67
2022/07/08 00:25:01;;;;;;;14.40;3.22;;;14.70;80.00;;;;;;5017415;28;20118;-68
2022/07/08 00:27:27;;;;;;;13.85;3.22;;;14.60;80.90;;;;;;5029042;28;20022;-68
2022/07/08 00:29:53;;;;;;;21.63;4.22;;;14.50;81.50;;;;;;5022388;28;20025;-67
2022/07/08 00:32:21;;;;;;;12.70;3.42;;;14.50;82.00;;;;;;5022038;28;20308;-68
2022/07/08 00:34:47;;;;;;;15.05;2.95;;;14.40;81.60;;;;;;5029292;28;20030;-68
2022/07/08 00:37:13;;;;;;;10.60;2.80;;;14.50;81.70;;;;;;5016914;28;20036;-67
2022/07/08 00:39:38;;;;;;;14.25;3.53;;;14.50;81.40;;;;;;5025956;28;20018;-66
2022/07/08 00:42:05;;;;;;;10.02;2.55;;;14.50;81.40;;;;;;5023262;28;20030;-68
2022/07/08 00:44:31;;;;;;;14.60;3.22;;;;;;;;;;5020255;28;20398;-68
2022/07/08 00:46:57;;;;;;;11.07;3.55;;;;;;;;;;5029693;28;20032;-67
2022/07/08 00:49:23;;;;;;;15.65;3.00;;;;;;;;;;5017415;28;20403;-67
2022/07/08 00:51:49;;;;;;;13.00;3.05;;;;;;;;;;5025552;28;20105;-67
2022/07/08 00:54:16;;;;;;;15.52;3.25;;;;;;;;;;5024527;28;20053;-67
2022/07/08 00:56:42;;;;;;;13.52;3.80;;;;;;;;;;5017385;28;20403;-68
2022/07/08 00:59:09;;;;;;;10.15;3.35;;;;;;;;;;5029335;28;20104;-67
2022/07/08 01:01:35;;;;;;;16.50;3.03;;;;;;;;;;5018715;28;20029;-67
2022/07/08 01:04:01;;;;;;;13.43;3.67;;;;;;;;;;5023702;28;20443;-67
2022/07/08 01:06:27;;;;;;;16.27;3.00;;;;;;;;;;5025821;28;20454;-67
2022/07/08 01:08:53;;;;;;;13.88;3.40;;;;;;;;;;5016121;28;20026;-67
2022/07/08 01:11:19;;;;;;;11.50;3.20;;;;;;;;;;5029213;28;20018;-67
2022/07/08 01:13:46;;;;;;;18.92;3.08;;;;;;;;;;5020092;28;20104;-67
2022/07/08 01:16:12;;;;;;;18.20;3.33;;;;;;;;;;5021570;28;20026;-66
2022/07/08 01:18:40;;;;;;;18.05;2.92;;;;;;;;;;5026725;28;20435;-66
2022/07/08 01:21:06;;;;;;;17.55;3.58;;;;;;;;;;5016176;28;20038;-66
2022/07/08 01:23:32;;;;;;;13.85;3.00;;;;;;;;;;5027114;28;20018;-66
2022/07/08 01:25:59;;;;;;;12.95;3.63;;;;;;;;;;5021605;28;20021;-66
2022/07/08 01:28:24;;;;;;;14.10;3.08;;;;;;;;;;5019808;28;20079;-66
2022/07/08 01:30:51;;;;;;;20.02;4.32;;;;;;;;;;5028866;28;20025;-66
2022/07/08 01:33:17;;;;;;;13.55;3.60;;;;;;;;;;5016027;28;20024;-66
2022/07/08 01:35:43;;;;;;;22.17;3.85;;;;;;;;;;5025705;28;20097;-66
2022/07/08 01:38:09;;;;;;;12.68;2.88;;;;;;;;;;5022666;28;20020;-66
2022/07/08 01:40:35;;;;;;;19.65;3.97;;;;;;;;;;5018331;28;20033;-66
2022/07/08 01:43:01;;;;;;;21.05;3.88;;;;;;;;;;5027516;28;20125;-66
2022/07/08 01:45:27;;;;;;;13.80;3.42;;;;;;;;;;5017087;28;20052;-66
2022/07/08 01:47:53;;;;;;;11.13;3.28;;;;;;;;;;5023866;28;20022;-66
2022/07/08 01:50:19;;;;;;;18.65;3.83;;;;;;;;;;5024487;28;20378;-66
2022/07/08 01:52:45;;;;;;;16.25;3.08;;;;;;;;;;5016932;28;20181;-65
2022/07/08 01:55:11;;;;;;;14.73;3.15;;;;;;;;;;5027523;28;20444;-65
2022/07/08 01:57:37;;;;;;;16.55;3.65;;;;;;;;;;5017906;28;20060;-65
2022/07/08 02:00:05;;;;;;;13.07;3.17;;;;;;;;;;5022280;28;20026;-66
2022/07/08 02:02:31;;;;;;;21.67;3.67;;;;;;;;;;5025362;28;20052;-66
2022/07/08 02:04:57;;;;;;;18.42;3.97;;;;;;;;;;5015315;28;20033;-65
2022/07/08 02:07:23;;;;;;;18.60;3.55;;;;;;;;;;5027443;28;20017;-66
2022/07/08 02:09:49;;;;;;;14.43;3.47;;;;;;;;;;5019757;28;20021;-65
2022/07/08 02:12:18;;;;;;;16.65;3.33;;;;;;;;;;5020746;28;20026;-66
2022/07/08 02:14:44;;;;;;;14.20;3.15;;;;;;;;;;5027469;28;20030;-66
2022/07/08 02:17:10;;;;;;;13.10;3.30;;;;;;;;;;5015019;28;20036;-66
2022/07/08 02:19:36;;;;;;;12.40;3.35;;;;;;;;;;5025599;28;20037;-68
2022/07/08 02:22:03;;;;;;;17.45;3.40;;;;;;;;;;5021544;28;20530;-66
2022/07/08 02:24:29;;;;;;;14.15;2.95;;;;;;;;;;5018582;28;20057;-66
2022/07/08 02:26:55;;;;;;;13.75;3.03;;;;;;;;;;5028168;28;20033;-67
2022/07/08 02:29:21;;;;;;;15.93;3.20;;;;;;;;;;5015433;28;20398;-66
2022/07/08 02:31:47;;;;;;;14.02;3.13;;;;;;;;;;5024258;28;20026;-66
2022/07/08 02:34:13;;;;;;;12.35;3.42;;;;;;;;;;5022868;28;20045;-66
2022/07/08 02:36:39;;;;;;;14.13;3.67;;;;;;;;;;5017377;28;20511;-66
2022/07/08 02:39:05;;;;;;;18.70;3.85;;;;;;;;;;5027824;28;20095;-66
2022/07/08 02:41:31;;;;;;;17.52;4.22;;;;;;;;;;5016919;28;20018;-66
2022/07/08 02:43:58;;;;;;;13.68;3.15;;;;;;;;;;5022798;28;20072;-66
2022/07/08 02:46:24;;;;;;;12.02;2.97;;;;;;;;;;5024034;28;20108;-66
2022/07/08 02:48:50;;;;;;;14.15;3.55;;;;;;;;;;5015106;28;20057;-66
2022/07/08 02:51:16;;;;;;;16.30;3.88;;;;;;;;;;5027849;28;20069;-66
2022/07/08 02:53:42;;;;;;;15.93;4.13;;;;;;;;;;5018351;28;20509;-66
2022/07/08 02:56:08;;;;;;;15.50;3.35;;;;;;;;;;5020871;28;20018;-66
2022/07/08 02:58:34;;;;;;;20.48;4.43;;;;;;;;;;5025051;28;20103;-66
2022/07/08 03:01:00;;;;;;;17.40;4.53;;;;;;;;;;5014671;28;20037;-66
2022/07/08 03:03:26;;;;;;;13.75;3.25;;;;;;;;;;5026656;28;20026;-66
2022/07/08 03:05:52;;;;;;;16.13;3.55;;;;;;;;;;5019601;28;20067;-66
2022/07/08 03:08:18;;;;;;;45.63;25.45;;;;;;;;;;5019550;28;20018;-66
2022/07/08 03:10:44;;;;;;;24.92;5.93;;;;;;;;;;5026524;28;20443;-65
2022/07/08 03:13:10;;;;;;;16.92;4.40;;;;;;;;;;5014736;28;20026;-66
2022/07/08 03:15:36;;;;;;;193.88;98.10;;;;;;;;;;5025294;28;20391;-66
2022/07/08 03:18:02;;;;;;;18.42;4.18;;;;;;;;;;5020171;28;20053;-66
2022/07/08 03:20:28;;;;;;;22.23;7.13;;;;;;;;;;5019473;28;20026;-67
2022/07/08 03:22:54;;;;;;;27.55;6.85;;;;;;;;;;5031895;28;20087;-66
2022/07/08 03:25:20;;;;;;;18.08;4.72;;;;;;;;;;5018664;28;20013;-68
2022/07/08 03:27:48;;;;;;;24.27;6.28;;;;;;;;;;5027023;28;20060;-66
2022/07/08 03:30:14;;;;;;;16.05;4.10;;;;;;;;;;5026126;28;20022;-67
2022/07/08 03:32:40;;;;;;;17.75;3.85;;;;;;;;;;5020239;28;20080;-67
2022/07/08 03:35:06;;;;;;;16.33;4.30;;;;;;;;;;5031083;28;20029;-66
2022/07/08 03:37:32;;;;;;;20.20;4.55;;;;;;;;;;5019912;28;20021;-66
2022/07/08 03:41:19;;;;;;;23.25;4.50;;;;;;;;;;5025757;28;20029;-66
2022/07/08 03:42:47;;;;;;;19.60;4.15;;;;;;;;;;5029934;28;20036;-67
2022/07/08 03:45:13;;;;;;;20.88;4.30;;;;;;;;;;5018220;28;20029;-67
2022/07/08 03:47:39;;;;;;;21.27;4.80;;;;;;;;;;5027586;28;20073;-67
2022/07/08 03:50:05;;;;;;;29.00;4.88;;;;;;;;;;5024334;28;20034;-66
2022/07/08 03:52:31;;;;;;;19.70;4.18;;;;;;;;;;5020707;28;20109;-67
2022/07/08 03:54:57;;;;;;;25.00;5.30;;;;;;;;;;5029427;28;20101;-66
2022/07/08 03:57:24;;;;;;;19.83;5.03;;;;;;;;;;5017864;28;20079;-66
2022/07/08 03:59:50;;;;;;;25.90;4.13;;;;;;;;;;5026466;28;20028;-65
2022/07/08 04:02:16;;;;;;;18.73;4.03;;;;;;;;;;5025837;28;20025;-66
2022/07/08 04:04:42;;;;;;;19.40;4.05;;;;;;;;;;5019088;28;20018;-66
2022/07/08 04:07:08;;;;;;;19.77;4.75;;;;;;;;;;5030412;28;20017;-66
2022/07/08 04:09:34;;;;;;;23.55;4.63;;;;;;;;;;5019796;28;20484;-66
2022/07/08 04:12:00;;;;;;;19.77;4.47;;;;;;;;;;5024632;28;20033;-66
2022/07/08 04:14:26;;;;;;;24.58;5.18;;;;;;;;;;5026524;28;20032;-67
2022/07/08 04:16:52;;;;;;;26.42;4.68;;;;;;;;;;5043727;23;20471;-72
2022/07/08 04:19:18;;;;;;;17.58;4.03;;;;;;;;;;5032456;28;20116;-71
2022/07/08 04:21:44;;;;;;;27.95;5.43;;;;;;;;;;5032388;28;20014;-71
2022/07/08 04:24:10;;;;;;;15.50;3.97;;;;;;;;;;5033738;28;20062;-72
2022/07/08 04:26:36;;;;;;;21.38;4.43;;;;;;;;;;5029143;28;20197;-72
2022/07/08 04:29:02;;;;;;;28.17;5.82;;;;;;;;;;5013042;28;20026;-72
2022/07/08 04:31:28;;;;;;;24.08;4.65;;;;;;;;;;5012802;28;20548;-71
2022/07/08 04:33:54;;;;;;;23.40;5.75;;;;;;;;;;5013197;28;20053;-70
2022/07/08 04:36:21;;;;;;;18.65;4.68;;;;;;;;;;5012108;28;20026;-71
2022/07/08 04:38:47;;;;;;;20.30;4.60;;;;;;;;;;5013109;28;20459;-71
2022/07/08 04:41:13;;;;;;;17.65;3.92;;;;;;;;;;5012986;28;20053;-71
2022/07/08 04:43:39;;;;;;;23.55;4.72;;;;;;;;;;5013216;28;20113;-70
2022/07/08 04:46:05;;;;;;;16.02;4.72;;;;;;;;;;5011791;28;20367;-72
2022/07/08 04:48:31;;;;;;;16.48;3.72;;;;;;;;;;5011688;28;20022;-72
2022/07/08 04:50:57;;;;;;;17.92;4.32;;;;;;;;;;5013089;28;20030;-70
2022/07/08 04:53:24;;;;;;;18.33;4.57;;;;;;;;;;5013104;28;20518;-71
2022/07/08 04:55:50;;;;;;;31.85;5.85;;;;;;;;;;5011672;28;20033;-70
2022/07/08 04:58:16;;;;;;;18.80;4.60;;;;;;;;;;5012618;28;20026;-70
2022/07/08 05:00:42;;;;;;;25.33;5.43;;;;;;;;;;5012875;28;20080;-71
2022/07/08 05:03:08;;;;;;;20.42;4.22;;;15.70;77.00;;;;;;5012980;28;20026;-69
2022/07/08 05:05:34;;;;;;;24.67;4.85;;;15.60;76.90;;;;;;5012830;28;20024;-70
2022/07/08 05:08:00;;;;;;;25.58;6.30;;;15.60;77.10;;;;;;5012775;28;20026;-71
2022/07/08 05:10:26;;;;;;;21.73;5.63;;;15.60;77.00;;;;;;5011334;28;20026;-72
2022/07/08 05:12:53;;;;;;;25.70;5.28;;;15.70;76.80;;;;;;5012768;28;20030;-70
2022/07/08 05:15:19;;;;;;;27.00;5.43;;;15.80;76.80;;;;;;4996220;28;20407;-70
2022/07/08 05:17:44;;;;;;;25.95;5.80;;;15.80;76.70;;;;;;5012240;28;20117;-70
2022/07/08 05:20:11;;;;;;;34.15;7.22;;;15.80;76.60;;;;;;5012542;28;20032;-71
2022/07/08 05:22:37;;;;;;;31.65;6.20;;;15.80;76.60;;;;;;5012828;28;20034;-71
2022/07/08 05:25:04;;;;;;;26.05;5.65;;;15.80;76.60;;;;;;5012066;28;20018;-71
2022/07/08 05:27:30;;;;;;;27.35;6.72;;;15.80;76.70;;;;;;5011887;28;20112;-71
2022/07/08 05:29:56;;;;;;;37.83;7.35;;;15.90;76.70;;;;;;5010958;28;20118;-72
2022/07/08 05:32:22;;;;;;;28.88;6.10;;;15.90;76.50;;;;;;5010781;28;20026;-70
2022/07/08 05:34:48;;;;;;;24.60;5.95;;;15.80;76.90;;;;;;5012058;28;20079;-71
2022/07/08 05:37:14;;;;;;;31.02;6.28;;;15.80;77.00;;;;;;5011306;28;20421;-70
2022/07/08 05:39:41;;;;;;;25.10;5.70;;;15.70;76.90;;;;;;5010300;28;20022;-70
2022/07/08 05:42:10;;;;;;;30.80;5.53;;;15.80;76.70;;;;;;5011578;28;20448;-71
2022/07/08 05:44:38;;;;;;;35.42;7.07;;;15.80;77.00;;;;;;5011722;28;20101;-70
2022/07/08 05:47:05;;;;;;;32.30;6.00;;;15.70;77.10;;;;;;5011473;28;20026;-71
2022/07/08 05:49:31;;;;;;;26.23;5.97;;;15.70;77.80;;;;;;5012143;28;20026;-71
2022/07/08 05:51:57;;;;;;;32.42;6.25;;;15.70;77.90;;;;;;5011871;28;20030;-71
2022/07/08 05:54:22;;;;;;;35.60;6.32;;;15.70;77.30;;;;;;5011938;28;20022;-69
2022/07/08 05:56:48;;;;;;;37.22;6.63;;;15.70;77.70;;;;;;5010373;28;20037;-71
2022/07/08 05:59:14;;;;;;;29.73;6.82;;;15.70;77.70;;;;;;5011479;28;20083;-71
2022/07/08 06:01:40;;;;;;;31.85;6.57;;;15.70;78.00;;;;;;5011748;28;20018;-71
2022/07/08 06:04:06;;;;;;;37.42;6.43;;;15.70;77.80;;;;;;5011401;28;20136;-71
2022/07/08 06:06:31;;;;;;;38.20;6.20;;;15.60;77.90;;;;;;5011036;28;20022;-71
2022/07/08 06:08:57;;;;;;;28.30;5.57;;;15.60;77.90;;;;;;5008390;28;20109;-70
2022/07/08 06:11:22;;;;;;;35.58;7.82;;;15.70;77.90;;;;;;5010752;28;20097;-70
2022/07/08 06:13:49;;;;;;;31.55;7.13;;;15.70;77.80;;;;;;5011330;28;20018;-69
2022/07/08 06:16:15;;;;;;;29.20;6.32;;;15.70;78.20;;;;;;5010987;28;20040;-70
2022/07/08 06:18:41;;;;;;;25.13;6.22;;;15.90;77.90;;;;;;5009365;28;20014;-70
2022/07/08 06:21:07;;;;;;;23.85;5.82;;;15.90;77.90;;;;;;5010939;28;20033;-69
2022/07/08 06:23:34;;;;;;;30.75;6.90;;;16.10;77.30;;;;;;5010958;28;20565;-71
2022/07/08 06:26:00;;;;;;;33.00;6.43;;;16.20;76.50;;;;;;5009491;28;20026;-71
2022/07/08 06:28:25;;;;;;;29.27;6.28;;;16.40;76.30;;;;;;5009055;28;20480;-70
2022/07/08 06:30:51;;;;;;;23.60;5.28;;;16.50;75.80;;;;;;5009732;28;20032;-71
2022/07/08 06:33:17;;;;;;;29.55;6.38;;;16.50;75.70;;;;;;5010461;28;20026;-72
2022/07/08 06:35:42;;;;;;;27.00;6.72;;;16.50;75.40;;;;;;5010265;28;20021;-71
2022/07/08 06:38:08;;;;;;;31.67;6.80;;;16.50;75.40;;;;;;5011170;28;20052;-70
2022/07/08 06:40:34;;;;;;;23.33;5.13;;;16.50;75.50;;;;;;5011626;28;20035;-69
2022/07/08 06:42:59;;;;;;;21.73;5.60;;;16.50;76.00;;;;;;5011567;28;20026;-70
2022/07/08 06:45:25;;;;;;;31.80;6.88;;;16.60;75.70;;;;;;5011568;28;20014;-71
2022/07/08 06:47:50;;;;;;;41.05;6.53;;;16.60;75.50;;;;;;5011191;28;20022;-71
2022/07/08 06:50:16;;;;;;;34.03;6.55;;;16.70;75.00;;;;;;5009984;28;20022;-71
2022/07/08 06:52:42;;;;;;;17.67;4.63;;;16.70;74.70;;;;;;5011216;28;20026;-71
2022/07/08 06:55:08;;;;;;;26.80;6.07;;;16.90;74.80;;;;;;5011564;28;20088;-70
2022/07/08 06:57:34;;;;;;;28.10;5.63;;;16.90;74.20;;;;;;5014547;28;20022;-71
2022/07/08 07:00:00;;;;;;;25.02;6.13;;;16.90;74.50;;;;;;5015062;28;20030;-71
2022/07/08 07:02:25;;;;;;;25.25;5.05;;;16.70;74.70;;;;;;5012338;28;20014;-71
2022/07/08 07:04:51;;;;;;;19.65;5.28;;;16.60;74.60;;;;;;5013608;28;20029;-72
2022/07/08 07:07:17;;;;;;;22.55;5.72;;;16.60;75.40;;;;;;5013297;28;20041;-71
2022/07/08 07:09:42;;;;;;;30.15;6.03;;;16.60;75.50;;;;;;5014712;28;20109;-71
2022/07/08 07:12:09;;;;;;;18.38;4.43;;;16.70;75.40;;;;;;5014777;28;20030;-71
2022/07/08 07:14:36;;;;;;;19.83;5.35;;;16.80;75.20;;;;;;5014877;28;20551;-73
2022/07/08 07:17:02;;;;;;;19.73;4.68;;;16.90;74.40;;;;;;5013799;28;20116;-71
2022/07/08 07:19:28;;;;;;;27.52;5.95;;;16.90;74.40;;;;;;5011492;28;20041;-70
2022/07/08 07:21:54;;;;;;;17.65;4.15;;;16.90;74.40;;;;;;5003983;28;20594;-71
2022/07/08 07:24:20;;;;;;;23.25;5.55;;;16.90;74.30;;;;;;5014848;28;20384;-70
2022/07/08 07:26:46;;;;;;;18.83;4.18;;;16.80;74.60;;;;;;5014450;28;20049;-71
2022/07/08 07:29:12;;;;;;;19.38;5.00;;;16.80;74.50;;;;;;5010356;28;20498;-70
2022/07/08 07:31:38;;;;;;;21.92;5.40;;;16.80;74.70;;;;;;5014772;28;20515;-71
2022/07/08 07:34:03;;;;;;;21.40;4.97;;;16.80;74.60;;;;;;5014722;28;20396;-70
2022/07/08 07:36:30;;;;;;;14.43;4.50;;;16.80;74.50;;;;;;5014469;28;20022;-70
2022/07/08 07:38:55;;;;;;;19.70;4.50;;;16.90;74.50;;;;;;5014456;28;20515;-71
2022/07/08 07:41:21;;;;;;;25.00;5.20;;;16.90;74.10;;;;;;5014830;28;20218;-70
2022/07/08 07:43:47;;;;;;;20.83;4.68;;;16.90;74.00;;;;;;5014761;28;20022;-71
2022/07/08 07:46:13;;;;;;;14.63;5.00;;;16.90;74.00;;;;;;5014432;28;20419;-71
2022/07/08 07:48:38;;;;;;;23.17;5.28;;;17.00;73.70;;;;;;5014279;28;20022;-70
2022/07/08 07:51:04;;;;;;;19.08;4.00;;;17.00;73.50;;;;;;5014489;28;20026;-69
2022/07/08 07:53:30;;;;;;;20.02;4.25;;;17.00;73.40;;;;;;5009038;28;20349;-71
2022/07/08 07:55:57;;;;;;;16.17;3.72;;;17.20;72.70;;;;;;4995784;28;20033;-70
2022/07/08 07:58:23;;;;;;;21.67;4.25;;;17.30;72.10;;;;;;5014025;28;20080;-70
2022/07/08 08:00:49;;;;;;;12.88;3.85;;;17.30;71.90;;;;;;5012586;28;20050;-70
2022/07/08 08:03:15;;;;;;;19.77;3.75;;;17.40;71.90;;;;;;5012288;28;20061;-69
2022/07/08 08:05:42;;;;;;;16.60;4.35;;;17.40;71.60;;;;;;5013835;28;20442;-71
2022/07/08 08:08:08;;;;;;;15.45;4.40;;;17.20;72.10;;;;;;5013677;28;20053;-70
2022/07/08 08:10:34;;;;;;;12.90;3.50;;;17.40;71.40;;;;;;5013474;28;20014;-70
2022/07/08 08:13:00;;;;;;;14.35;4.07;;;17.60;71.20;;;;;;5013968;28;20495;-71
2022/07/08 08:15:29;;;;;;;25.02;4.82;;;17.70;70.40;;;;;;5012653;28;20030;-71
2022/07/08 08:17:56;;;;;;;19.33;6.22;;;17.80;70.00;;;;;;5013227;28;20026;-70
2022/07/08 08:20:24;;;;;;;15.95;4.03;;;18.00;69.70;;;;;;5013524;28;20169;-69
2022/07/08 08:22:50;;;;;;;14.75;4.13;;;18.00;69.30;;;;;;5013769;28;20022;-69
2022/07/08 08:25:15;;;;;;;18.08;3.90;;;18.10;69.00;;;;;;5013832;28;20028;-70
2022/07/08 08:27:41;;;;;;;11.23;3.10;;;17.90;68.60;;;;;;5013312;28;20037;-71
2022/07/08 08:30:08;;;;;;;15.85;3.25;;;17.70;69.00;;;;;;5013922;28;20026;-69
2022/07/08 08:32:33;;;;;;;13.55;3.10;;;17.80;69.20;;;;;;5013706;28;20057;-69
2022/07/08 08:34:59;;;;;;;9.98;4.03;;;17.90;68.90;;;;;;5013619;28;20061;-69
2022/07/08 08:37:25;;;;;;;16.75;3.20;;;18.00;68.20;;;;;;5013411;28;20113;-69
2022/07/08 08:39:52;;;;;;;12.10;3.65;;;18.10;67.70;;;;;;5013779;28;20034;-68
2022/07/08 08:42:19;;;;;;;16.45;3.92;;;18.00;67.70;;;;;;5013341;28;20105;-71
2022/07/08 08:44:49;;;;;;;10.38;3.05;;;18.00;68.20;;;;;;5013255;28;20029;-70
2022/07/08 08:47:23;;;;;;;15.55;3.25;;;18.10;67.60;;;;;;5013325;28;20030;-69
2022/07/08 08:49:49;;;;;;;11.50;2.85;;;18.30;67.10;;;;;;5013804;28;20022;-72
2022/07/08 08:52:16;;;;;;;14.63;2.75;;;;;;;;;;5013584;28;20439;-70
2022/07/08 08:54:43;;;;;;;14.27;4.07;;;18.80;65.50;;;;;;5013218;28;20452;-70
2022/07/08 08:57:10;;;;;;;13.75;2.58;;;19.20;64.10;;;;;;5012933;28;20113;-70
2022/07/08 08:59:36;;;;;;;11.95;3.53;;;19.30;63.70;;;;;;5013249;28;20428;-71
2022/07/08 09:02:02;;;;;;;15.20;3.53;;;19.50;62.80;;;;;;5012859;28;20113;-71
2022/07/08 09:04:31;;;;;;;13.30;3.22;;;20.00;61.20;;;;;;5013392;28;20121;-70
2022/07/08 09:07:00;;;;;;;13.05;3.13;;;20.30;60.50;;;;;;5013051;28;20032;-71
2022/07/08 09:09:26;;;;;;;14.23;3.28;;;20.50;60.20;;;;;;5012955;28;20028;-71
2022/07/08 09:11:51;;;;;;;11.52;3.17;;;20.40;60.10;;;;;;5013105;28;20030;-69
2022/07/08 09:14:22;;;;;;;17.55;4.03;;;20.20;60.50;;;;;;5012968;28;20492;-70
2022/07/08 09:17:12;;;;;;;10.82;3.28;;;20.00;61.30;;;;;;5012854;28;20463;-71
2022/07/08 09:19:41;;;;;;;15.15;3.80;;;19.70;62.00;;;;;;5012038;28;20064;-71
2022/07/08 09:22:07;;;;;;;13.98;3.50;;;19.60;62.00;;;;;;5012751;28;20026;-70
2022/07/08 09:24:34;;;;;;;14.95;4.07;;;19.50;62.00;;;;;;5012715;28;20514;-71
2022/07/08 09:27:10;;;;;;;20.65;3.42;;;19.60;62.00;;;;;;5011404;28;20029;-69
2022/07/08 09:29:39;;;;;;;12.20;2.85;;;19.70;61.60;;;;;;5016213;28;20025;-72
2022/07/08 09:32:12;;;;;;;17.65;4.03;;;19.80;61.50;;;;;;4991264;28;20273;-71
2022/07/08 09:34:38;;;;;;;17.85;3.15;;;19.80;62.10;;;;;;4991129;28;20041;-71
2022/07/08 09:37:12;;;;;;;17.77;3.22;;;20.10;61.20;;;;;;4992449;28;20026;-71
2022/07/08 09:39:38;;;;;;;14.50;3.05;;;20.50;60.20;;;;;;4992872;28;20117;-69
2022/07/08 09:42:08;;;;;;;14.82;3.78;;;20.80;58.90;;;;;;4998474;28;20068;-70
2022/07/08 09:44:34;;;;;;;11.80;3.13;;;20.90;58.20;;;;;;5012517;28;20084;-70
2022/07/08 09:47:00;;;;;;;11.52;2.63;;;20.80;58.50;;;;;;5012080;28;20076;-70
2022/07/08 09:49:30;;;;;;;9.60;2.92;;;20.40;59.30;;;;;;5012094;28;20030;-71
2022/07/08 09:51:57;;;;;;;14.88;3.22;;;20.00;60.60;;;;;;5012009;28;20041;-69
2022/07/08 09:54:23;;;;;;;14.35;3.97;;;19.60;61.60;;;;;;5011904;28;20103;-70
2022/07/08 09:57:08;;;;;;;13.68;3.45;;;19.60;61.80;;;;;;5011486;28;20176;-71
2022/07/08 09:59:35;;;;;;;15.05;3.42;;;19.80;61.60;;;;;;5011639;28;20542;-69
2022/07/08 10:02:02;;;;;;;10.88;2.88;;;20.00;60.80;;;;;;5011349;28;20076;-71
2022/07/08 10:04:28;;;;;;;12.50;3.20;;;20.40;60.30;;;;;;5010158;28;20037;-70
2022/07/08 10:06:56;;;;;;;14.68;3.20;;;20.50;59.30;;;;;;5011456;28;20121;-71
2022/07/08 10:09:23;;;;;;;9.43;2.30;;;20.90;57.90;;;;;;5011045;28;20033;-70
2022/07/08 10:11:50;;;;;;;11.75;2.78;;;21.10;57.40;;;;;;5010207;28;20116;-70
2022/07/08 10:14:18;;;;;;;10.88;2.80;;;21.50;55.00;;;;;;5009951;28;20037;-70
2022/07/08 10:19:30;;;;;;;9.35;2.28;;;21.40;53.30;;;;;;4989166;28;20128;-70
2022/07/08 10:21:58;;;;;;;9.10;2.78;;;21.60;53.00;;;;;;4990484;28;20603;-70
2022/07/08 10:24:28;;;;;;;13.15;2.95;;;21.60;53.00;;;;;;4990585;28;20054;-70
2022/07/08 10:26:58;;;;;;;8.95;2.22;;;21.50;52.90;;;;;;4991614;28;20137;-71
2022/07/08 10:29:32;;;;;;;10.63;2.40;;;21.40;53.60;;;;;;4991257;28;20034;-70
2022/07/08 10:31:59;;;;;;;15.93;2.70;;;21.10;54.00;;;;;;4991839;28;20030;-70
2022/07/08 10:34:35;;;;;;;10.90;2.47;;;20.90;54.30;;;;;;4991794;28;20027;-71
2022/07/08 10:37:02;;;;;;;7.70;2.30;;;20.50;55.90;;;;;;4992016;28;20420;-70
2022/07/08 10:39:39;;;;;;;12.65;2.85;;;20.60;56.10;;;;;;4992044;28;20114;-71
2022/07/08 10:42:10;;;;;;;9.10;2.65;;;20.60;56.20;;;;;;4990758;28;20027;-70
2022/07/08 10:44:45;;;;;;;9.13;2.38;;;20.70;56.40;;;;;;4990648;28;20022;-71
2022/07/08 10:47:11;;;;;;;10.45;3.30;;;20.70;55.90;;;;;;4991868;28;20287;-70
2022/07/08 10:49:41;;;;;;;11.70;2.80;;;20.60;56.10;;;;;;4991873;28;20032;-70
2022/07/08 10:52:07;;;;;;;13.43;2.75;;;20.50;56.50;;;;;;4992039;28;20146;-70
2022/07/08 10:54:37;;;;;;;12.73;3.13;;;20.20;56.80;;;;;;4990502;28;20030;-71
2022/07/08 10:57:09;;;;;;;8.35;2.65;;;19.70;56.40;;;;;;4991181;28;20027;-70
2022/07/08 10:59:36;;;;;;;10.43;2.92;;;19.50;57.60;;;;;;4989862;28;20054;-70
2022/07/08 11:02:03;;;;;;;7.95;2.38;;;19.50;58.30;;;;;;4989889;28;20027;-70
2022/07/08 11:04:34;;;;;;;13.38;2.90;;;19.70;57.60;;;;;;4991158;28;20026;-71
2022/07/08 11:07:18;;;;;;;13.07;3.17;;;20.10;56.30;;;;;;4990023;28;20045;-70
2022/07/08 11:09:46;;;;;;;10.20;2.75;;;20.40;55.60;;;;;;4989497;28;20451;-71
2022/07/08 11:12:15;;;;;;;12.52;2.90;;;20.40;55.70;;;;;;4989588;28;20041;-70
2022/07/08 11:14:48;;;;;;;9.90;3.08;;;20.20;56.60;;;;;;4989917;28;20088;-71
2022/07/08 11:17:18;;;;;;;9.68;2.45;;;19.60;56.80;;;;;;4989247;28;20129;-71
2022/07/08 11:19:45;;;;;;;17.55;2.58;;;19.30;57.30;;;;;;4990009;28;20026;-70
2022/07/08 11:22:12;;;;;;;13.23;2.22;;;19.30;57.50;;;;;;4992189;28;20059;-70
2022/07/08 11:24:38;;;;;;;10.50;2.47;;;19.40;57.10;;;;;;4990388;28;20026;-71
2022/07/08 11:27:07;;;;;;;11.50;2.08;;;19.50;56.30;;;;;;4991353;28;20033;-70
2022/07/08 11:29:33;;;;;;;9.75;1.63;;;19.90;55.70;;;;;;4991555;28;20030;-71
2022/07/08 11:32:01;;;;;;;6.20;2.30;;;20.10;55.30;;;;;;4991443;28;20029;-70
2022/07/08 11:34:27;;;;;;;6.70;1.88;;;20.30;54.90;;;;;;4991605;28;20030;-70
2022/07/08 11:36:56;;;;;;;7.95;1.98;;;20.60;54.60;;;;;;4991350;28;20033;-71
2022/07/08 11:39:22;;;;;;;9.10;2.03;;;20.70;53.80;;;;;;4991485;28;20136;-71
2022/07/08 11:41:48;;;;;;;11.73;2.47;;;20.40;54.20;;;;;;4993071;28;20488;-72
2022/07/08 11:44:13;;;;;;;7.53;1.92;;;20.10;54.40;;;;;;4994909;28;20022;-71
2022/07/08 11:46:46;;;;;;;15.32;2.45;;;20.00;55.30;;;;;;4994911;28;20384;-71
2022/07/08 11:49:13;;;;;;;7.97;2.67;;;19.80;55.70;;;;;;4994812;28;20028;-71
2022/07/08 11:51:43;;;;;;;7.10;1.90;;;19.60;56.20;;;;;;4995028;28;20018;-71
2022/07/08 11:54:09;;;;;;;11.95;2.78;;;19.50;57.10;;;;;;4995087;28;20023;-71
2022/07/08 11:56:34;;;;;;;8.05;1.98;;;19.40;57.80;;;;;;4994933;28;20033;-71
2022/07/08 11:59:00;;;;;;;6.60;2.08;;;19.30;57.80;;;;;;4994707;28;20022;-71
2022/07/08 12:01:26;;;;;;;9.50;2.58;;;19.30;57.80;;;;;;4995396;28;20379;-71
2022/07/08 12:03:52;;;;;;;15.45;2.88;;;19.20;57.80;;;;;;4996811;28;20034;-72
2022/07/08 12:06:25;;;;;;;9.68;2.53;;;19.10;57.80;;;;;;4996481;28;20019;-72
2022/07/08 12:08:51;;;;;;;16.13;2.53;;;19.30;58.10;;;;;;4995552;28;20026;-72
2022/07/08 12:11:19;;;;;;;11.18;2.10;;;19.30;58.10;;;;;;4995500;28;20045;-72
2022/07/08 12:13:47;;;;;;;9.30;2.70;;;19.40;57.50;;;;;;4996757;28;20038;-71
2022/07/08 12:16:30;;;;;;;12.68;3.20;;;19.40;57.30;;;;;;4997945;28;20061;-71
2022/07/08 12:18:56;;;;;;;7.10;2.33;;;19.30;57.40;;;;;;4994976;28;20098;-71
2022/07/08 12:21:22;;;;;;;12.05;2.42;;;19.10;58.20;;;;;;4996565;28;20124;-71
2022/07/08 12:24:00;;;;;;;17.13;3.03;;;19.30;58.30;;;;;;4994347;28;20053;-70
2022/07/08 12:26:27;;;;;;;9.02;2.63;;;19.40;57.80;;;;;;4993062;28;20018;-70
2022/07/08 12:28:53;;;;;;;10.23;2.35;;;19.50;57.40;;;;;;4994083;28;20037;-70
2022/07/08 12:31:51;;;;;;;10.73;2.83;;;19.50;56.60;;;;;;4994229;28;20406;-71
2022/07/08 12:34:19;;;;;;;11.43;2.97;;;19.40;57.20;;;;;;4961333;28;20042;-70
2022/07/08 12:36:46;;;;;;;10.43;3.05;;;19.50;57.20;;;;;;4993831;28;20377;-71
2022/07/08 12:39:12;;;;;;;7.72;2.17;;;19.80;56.80;;;;;;4993887;28;20085;-71
2022/07/08 12:41:37;;;;;;;10.88;2.42;;;20.20;56.10;;;;;;4994221;28;20023;-70
2022/07/08 12:44:32;;;;;;;10.07;1.90;;;20.70;54.80;;;;;;4993978;28;20028;-71
2022/07/08 12:46:58;;;;;;;10.70;2.47;;;21.20;53.70;;;;;;4992444;28;20026;-70
2022/07/08 12:49:26;;;;;;;8.82;2.53;;;21.40;52.20;;;;;;4994145;28;20030;-71
2022/07/08 12:51:51;;;;;;;18.65;2.75;;;21.30;52.20;;;;;;4993884;28;20484;-71
2022/07/08 12:54:18;;;;;;;11.48;2.55;;;21.00;51.80;;;;;;4992935;28;20033;-71
2022/07/08 12:56:44;;;;;;;5.63;2.15;;;21.10;52.30;;;;;;4993737;28;20046;-71
2022/07/08 12:59:10;;;;;;;8.85;2.10;;;21.30;51.20;;;;;;4993529;28;20023;-71
2022/07/08 13:01:36;;;;;;;7.80;2.17;;;21.50;50.80;;;;;;4993875;28;20033;-73
2022/07/08 13:04:03;;;;;;;6.57;2.15;;;21.70;50.50;;;;;;4994079;28;20054;-72
2022/07/08 13:06:29;;;;;;;9.27;2.08;;;21.90;49.90;;;;;;4993930;28;20081;-71
2022/07/08 13:08:55;;;;;;;8.40;2.17;;;21.70;49.50;;;;;;4993748;28;20026;-71
2022/07/08 13:11:20;;;;;;;9.98;2.35;;;21.50;50.00;;;;;;4993769;28;20026;-71
2022/07/08 13:13:46;;;;;;;7.38;1.73;;;21.50;50.30;;;;;;4993477;28;20058;-71
2022/07/08 13:16:12;;;;;;;12.60;2.55;;;21.40;51.40;;;;;;4993374;28;20443;-71